createdAt,value
2019-04-30T00:00:45.962Z,8.07
2019-04-30T00:05:53.799Z,7.40
2019-04-30T00:10:58.826Z,8.93
2019-04-30T00:16:05.365Z,8.30
2019-04-30T00:21:15.222Z,6.43
2019-04-30T00:26:18.069Z,7.00
2019-04-30T00:31:25.669Z,7.60
2019-04-30T00:36:34.192Z,9.57
2019-04-30T00:41:39.923Z,9.43
2019-04-30T00:46:45.480Z,9.67
2019-04-30T00:51:54.703Z,8.70
2019-04-30T00:57:03.712Z,9.03
2019-04-30T01:02:29.172Z,16.03
2019-04-30T01:07:31.932Z,11.47
2019-04-30T01:12:44.212Z,13.27
2019-04-30T01:17:45.295Z,15.23
2019-04-30T01:22:51.466Z,12.47
2019-04-30T01:27:58.579Z,15.47
2019-04-30T01:33:04.018Z,16.07
2019-04-30T01:38:12.722Z,19.50
2019-04-30T01:43:16.516Z,20.63
2019-04-30T01:48:21.846Z,22.17
2019-04-30T01:53:28.571Z,22.63
2019-04-30T01:58:49.473Z,21.25
2019-04-30T02:03:55.241Z,22.87
2019-04-30T02:09:00.642Z,24.73
2019-04-30T02:14:06.347Z,23.60
2019-04-30T02:19:11.672Z,24.00
2019-04-30T02:24:19.054Z,24.10
2019-04-30T02:29:24.130Z,25.73
2019-04-30T02:34:41.148Z,24.63
2019-04-30T02:39:45.981Z,25.70
2019-04-30T02:44:52.956Z,24.37
2019-04-30T02:50:13.676Z,25.50
2019-04-30T02:55:09.418Z,31.23
2019-04-30T03:00:20.627Z,24.67
2019-04-30T03:05:25.229Z,25.63
2019-04-30T03:10:30.652Z,23.87
2019-04-30T03:15:35.950Z,20.82
2019-04-30T03:20:52.685Z,24.50
2019-04-30T03:25:59.698Z,27.43
2019-04-30T03:31:05.427Z,26.63
2019-04-30T03:36:12.278Z,26.33
2019-04-30T03:41:19.924Z,26.43
2019-04-30T03:46:24.871Z,24.60
2019-04-30T03:51:30.460Z,25.30
2019-04-30T03:56:35.892Z,25.90
2019-04-30T04:01:49.772Z,33.70
2019-04-30T04:07:04.118Z,29.00
2019-04-30T04:12:20.512Z,29.63
2019-04-30T04:17:25.020Z,24.07
2019-04-30T04:22:30.873Z,24.17
2019-04-30T04:27:36.340Z,21.10
2019-04-30T04:32:41.840Z,26.43
2019-04-30T04:37:49.555Z,26.90
2019-04-30T04:42:54.191Z,25.80
2019-04-30T04:48:00.217Z,26.93
2019-04-30T04:53:07.920Z,23.53
2019-04-30T04:58:13.118Z,28.20
2019-04-30T05:03:24.921Z,31.57
2019-04-30T05:08:30.523Z,27.23
2019-04-30T05:13:35.951Z,26.00
2019-04-30T05:18:41.410Z,27.90
2019-04-30T05:23:46.983Z,28.90
2019-04-30T05:28:52.985Z,29.03
2019-04-30T05:33:58.767Z,31.77
2019-04-30T05:39:04.538Z,26.37
2019-04-30T05:44:09.963Z,31.50
2019-04-30T05:49:15.451Z,32.67
2019-04-30T05:54:20.818Z,29.10
2019-04-30T05:59:26.331Z,34.70
2019-04-30T06:04:31.775Z,31.30
2019-04-30T06:09:48.510Z,29.73
2019-04-30T06:14:59.091Z,31.53
2019-04-30T06:20:17.460Z,24.80
2019-04-30T06:25:12.124Z,26.63
2019-04-30T06:30:19.853Z,24.80
2019-04-30T06:35:25.727Z,25.53
2019-04-30T06:40:31.459Z,22.70
2019-04-30T06:45:38.799Z,22.17
2019-04-30T06:50:44.921Z,21.50
2019-04-30T06:55:50.573Z,18.37
2019-04-30T07:00:56.033Z,18.50
2019-04-30T07:06:01.451Z,18.87
2019-04-30T07:11:15.026Z,19.30
2019-04-30T07:16:23.686Z,18.10
2019-04-30T07:21:31.547Z,14.70
2019-04-30T07:26:38.806Z,19.70
2019-04-30T07:31:43.451Z,12.35
2019-04-30T07:37:02.484Z,13.27
2019-04-30T07:41:55.973Z,13.10
2019-04-30T07:47:02.135Z,11.53
2019-04-30T07:52:10.837Z,12.37
2019-04-30T07:57:14.628Z,12.73
2019-04-30T08:02:20.753Z,13.90
2019-04-30T08:07:26.455Z,14.27
2019-04-30T08:12:36.424Z,14.97
2019-04-30T08:17:39.050Z,16.40
2019-04-30T08:22:44.610Z,13.97
2019-04-30T08:27:50.016Z,11.27
2019-04-30T08:32:55.266Z,12.88
2019-04-30T08:38:00.610Z,9.77
2019-04-30T08:43:06.366Z,12.13
2019-04-30T08:48:11.852Z,11.40
2019-04-30T08:53:28.987Z,7.93
2019-04-30T08:58:24.580Z,8.97
2019-04-30T09:03:30.094Z,9.33
2019-04-30T09:08:37.087Z,9.93
2019-04-30T09:13:42.559Z,8.68
2019-04-30T09:18:49.456Z,8.27
2019-04-30T09:23:54.874Z,14.00
2019-04-30T09:29:00.316Z,9.63
2019-04-30T09:34:15.168Z,12.00
2019-04-30T09:39:12.905Z,9.83
2019-04-30T09:44:19.491Z,9.90
2019-04-30T09:49:25.076Z,12.17
2019-04-30T09:54:30.979Z,12.30
2019-04-30T09:59:36.552Z,7.03
2019-04-30T10:04:42.457Z,14.07
2019-04-30T10:09:50.681Z,8.90
2019-04-30T10:14:55.778Z,10.60
2019-04-30T10:20:01.161Z,9.63
2019-04-30T10:25:09.258Z,10.30
2019-04-30T10:30:15.115Z,10.70
2019-04-30T10:35:20.619Z,11.20
2019-04-30T10:40:26.257Z,10.10
2019-04-30T10:45:32.158Z,8.93
2019-04-30T10:50:40.713Z,11.80
2019-04-30T10:55:44.718Z,9.53
2019-04-30T11:00:50.056Z,12.43
2019-04-30T11:05:55.393Z,10.40
2019-04-30T11:11:00.946Z,8.27
2019-04-30T11:16:14.771Z,10.53
2019-04-30T11:21:15.103Z,10.43
2019-04-30T11:26:21.197Z,13.80
2019-04-30T11:31:37.182Z,13.63
2019-04-30T11:36:43.047Z,14.77
2019-04-30T11:41:48.802Z,13.50
2019-04-30T11:47:11.328Z,12.00
2019-04-30T11:52:16.879Z,9.13
2019-04-30T11:57:22.390Z,10.53
2019-04-30T12:02:40.846Z,6.03
2019-04-30T12:07:53.172Z,7.35
2019-04-30T12:12:58.788Z,8.07
2019-04-30T12:18:04.590Z,5.90
2019-04-30T12:23:11.893Z,6.10
2019-04-30T12:28:17.150Z,8.40
2019-04-30T12:33:22.662Z,4.60
2019-04-30T12:38:30.025Z,3.80
2019-04-30T12:43:35.611Z,4.50
2019-04-30T12:48:53.906Z,4.50
2019-04-30T12:54:04.271Z,2.83
2019-04-30T12:59:11.714Z,3.27
2019-04-30T13:04:19.382Z,6.13
2019-04-30T13:09:25.460Z,5.13
2019-04-30T13:14:32.055Z,5.80
2019-04-30T13:19:37.991Z,4.77
2019-04-30T13:24:44.645Z,5.30
2019-04-30T13:29:58.862Z,5.80
2019-04-30T13:35:14.515Z,11.03
2019-04-30T13:40:34.590Z,9.27
2019-04-30T13:45:42.107Z,8.95
2019-04-30T13:50:47.606Z,10.30
2019-04-30T13:55:55.250Z,7.50
2019-04-30T14:01:02.205Z,10.40
2019-04-30T14:06:10.023Z,5.97
2019-04-30T14:11:16.151Z,10.47
2019-04-30T14:16:22.651Z,11.03
2019-04-30T14:21:35.043Z,10.90
2019-04-30T14:26:36.234Z,10.88
2019-04-30T14:31:45.294Z,15.57
2019-04-30T14:36:51.211Z,10.77
2019-04-30T14:41:59.581Z,9.63
2019-04-30T14:47:13.928Z,12.93
2019-04-30T14:52:21.142Z,13.47
2019-04-30T14:57:43.314Z,12.83
2019-04-30T15:02:53.818Z,15.30
2019-04-30T15:08:00.945Z,17.20
2019-04-30T15:13:09.742Z,18.67
2019-04-30T15:18:16.730Z,14.07
2019-04-30T15:23:41.577Z,14.07
2019-04-30T15:28:49.189Z,13.17
2019-04-30T15:34:02.865Z,18.20
2019-04-30T15:39:30.638Z,12.60
2019-04-30T15:44:40.117Z,16.52
2019-04-30T15:49:43.583Z,11.07
2019-04-30T15:54:50.590Z,10.97
2019-04-30T15:59:56.626Z,15.43
2019-04-30T16:05:10.933Z,18.80
2019-04-30T16:10:29.455Z,17.87
2019-04-30T16:15:35.774Z,17.30
2019-04-30T16:20:42.376Z,16.57
2019-04-30T16:25:49.723Z,15.60
2019-04-30T16:30:55.794Z,17.17
2019-04-30T16:36:02.202Z,21.63
2019-04-30T16:41:08.942Z,20.00
2019-04-30T16:46:16.111Z,17.43
2019-04-30T16:51:22.783Z,17.17
2019-04-30T16:56:29.197Z,18.07
2019-04-30T17:01:36.214Z,15.72
2019-04-30T17:06:48.808Z,16.97
2019-04-30T17:12:00.602Z,19.10
2019-04-30T17:17:07.966Z,19.13
2019-04-30T17:22:13.603Z,16.00
2019-04-30T17:27:22.077Z,17.57
2019-04-30T17:32:28.587Z,17.60
2019-04-30T17:37:37.404Z,17.30
2019-04-30T17:42:43.934Z,17.80
2019-04-30T17:47:49.759Z,16.80
2019-04-30T17:52:55.390Z,20.17
2019-04-30T17:58:02.682Z,16.70
2019-04-30T18:03:10.805Z,18.73
2019-04-30T18:08:17.014Z,19.77
2019-04-30T18:13:23.275Z,19.27
2019-04-30T18:18:44.795Z,17.80
2019-04-30T18:24:05.151Z,16.50
2019-04-30T18:29:11.082Z,17.07
2019-04-30T18:34:19.364Z,16.40
2019-04-30T18:39:25.555Z,20.13
2019-04-30T18:44:34.339Z,14.83
2019-04-30T18:49:40.836Z,15.40
2019-04-30T18:54:49.622Z,16.30
2019-04-30T18:59:56.213Z,14.90
2019-04-30T19:05:02.136Z,16.73
2019-04-30T19:10:17.096Z,15.83
2019-04-30T19:15:59.151Z,17.87
2019-04-30T19:20:43.182Z,23.22
2019-04-30T19:25:49.682Z,17.40
2019-04-30T19:31:00.382Z,19.37
2019-04-30T19:36:04.011Z,18.97
2019-04-30T19:41:10.864Z,18.67
2019-04-30T19:46:18.797Z,19.73
2019-04-30T19:51:25.733Z,18.40
2019-04-30T19:56:32.837Z,17.83
2019-04-30T20:01:39.498Z,21.03
2019-04-30T20:06:48.707Z,19.10
2019-04-30T20:11:56.860Z,21.60
2019-04-30T20:17:03.973Z,19.90
2019-04-30T20:22:10.616Z,21.30
2019-04-30T20:27:18.893Z,22.53
2019-04-30T20:32:33.884Z,24.37
2019-04-30T20:37:32.226Z,24.30
2019-04-30T20:42:40.152Z,24.82
2019-04-30T20:47:46.054Z,23.85
2019-04-30T20:52:52.808Z,25.27
2019-04-30T20:57:59.541Z,24.27
2019-04-30T21:03:06.063Z,29.70
2019-04-30T21:08:11.861Z,29.02
2019-04-30T21:13:19.366Z,35.30
2019-04-30T21:18:31.886Z,30.53
2019-04-30T21:23:39.822Z,31.20
2019-04-30T21:28:46.182Z,29.60
2019-04-30T21:33:54.635Z,27.27
2019-04-30T21:39:00.462Z,30.27
2019-04-30T21:44:07.322Z,34.30
2019-04-30T21:49:13.274Z,34.43
2019-04-30T21:54:19.202Z,36.95
2019-04-30T21:59:25.223Z,33.43
2019-04-30T22:04:31.194Z,47.87
2019-04-30T22:09:39.525Z,56.60
2019-04-30T22:14:45.353Z,50.15
2019-04-30T22:19:51.787Z,39.93
2019-04-30T22:24:59.661Z,42.57
2019-04-30T22:30:07.782Z,59.80
2019-04-30T22:35:22.263Z,59.90
2019-04-30T22:40:31.310Z,72.37
2019-04-30T22:45:41.986Z,49.87
2019-04-30T22:50:48.330Z,43.83
2019-04-30T22:55:53.953Z,47.43
2019-04-30T23:01:09.487Z,61.77
2019-04-30T23:06:15.766Z,70.50
2019-04-30T23:11:22.026Z,112.93
2019-04-30T23:16:27.870Z,90.13
2019-04-30T23:21:33.816Z,61.53
2019-04-30T23:26:39.174Z,79.90
2019-04-30T23:31:45.693Z,98.27
2019-04-30T23:36:51.166Z,76.60
2019-04-30T23:41:57.294Z,130.37
2019-04-30T23:47:02.825Z,206.93
2019-04-30T23:52:09.486Z,184.57
2019-04-30T23:57:16.223Z,123.07
